sensor_id;sensor_type;location;lat;lon;timestamp;temperature;humidity
11532;DHT22;5822;51.000;5.874;2023-02-02T00:00:50;9.30;99.90
11532;DHT22;5822;51.000;5.874;2023-02-02T00:03:16;9.40;99.90
11532;DHT22;5822;51.000;5.874;2023-02-02T00:05:46;9.40;99.90
11532;DHT22;5822;51.000;5.874;2023-02-02T00:08:12;9.50;99.90
11532;DHT22;5822;51.000;5.874;2023-02-02T00:10:37;9.50;99.90
11532;DHT22;5822;51.000;5.874;2023-02-02T00:13:03;9.50;99.90
11532;DHT22;5822;51.000;5.874;2023-02-02T00:15:28;9.40;99.90
11532;DHT22;5822;51.000;5.874;2023-02-02T00:17:54;9.40;99.90
11532;DHT22;5822;51.000;5.874;2023-02-02T00:20:20;9.40;99.90
11532;DHT22;5822;51.000;5.874;2023-02-02T00:22:46;9.30;99.90
11532;DHT22;5822;51.000;5.874;2023-02-02T00:25:12;9.40;99.90
11532;DHT22;5822;51.000;5.874;2023-02-02T00:27:37;9.40;99.90
11532;DHT22;5822;51.000;5.874;2023-02-02T00:30:04;9.40;99.90
11532;DHT22;5822;51.000;5.874;2023-02-02T00:32:30;9.50;99.90
11532;DHT22;5822;51.000;5.874;2023-02-02T00:34:56;9.60;99.90
11532;DHT22;5822;51.000;5.874;2023-02-02T00:37:21;9.50;99.90
11532;DHT22;5822;51.000;5.874;2023-02-02T00:39:47;9.50;99.90
11532;DHT22;5822;51.000;5.874;2023-02-02T00:42:12;9.50;99.90
11532;DHT22;5822;51.000;5.874;2023-02-02T00:44:38;9.60;99.90
11532;DHT22;5822;51.000;5.874;2023-02-02T00:47:22;9.50;99.90
11532;DHT22;5822;51.000;5.874;2023-02-02T00:49:48;9.50;99.90
11532;DHT22;5822;51.000;5.874;2023-02-02T00:52:13;9.40;99.90
11532;DHT22;5822;51.000;5.874;2023-02-02T00:54:39;9.50;99.90
11532;DHT22;5822;51.000;5.874;2023-02-02T00:57:05;9.40;99.90
11532;DHT22;5822;51.000;5.874;2023-02-02T00:59:30;9.40;99.90
11532;DHT22;5822;51.000;5.874;2023-02-02T01:01:56;9.50;99.90
11532;DHT22;5822;51.000;5.874;2023-02-02T01:04:22;9.50;99.90
11532;DHT22;5822;51.000;5.874;2023-02-02T01:06:48;9.50;99.90
11532;DHT22;5822;51.000;5.874;2023-02-02T01:09:13;9.50;99.90
11532;DHT22;5822;51.000;5.874;2023-02-02T01:11:39;9.60;99.90
11532;DHT22;5822;51.000;5.874;2023-02-02T01:14:05;9.60;99.90
11532;DHT22;5822;51.000;5.874;2023-02-02T01:16:30;9.60;99.90
11532;DHT22;5822;51.000;5.874;2023-02-02T01:18:56;9.60;99.90
11532;DHT22;5822;51.000;5.874;2023-02-02T01:21:22;9.60;99.90
11532;DHT22;5822;51.000;5.874;2023-02-02T01:23:48;9.60;99.90
11532;DHT22;5822;51.000;5.874;2023-02-02T01:26:14;9.50;99.90
11532;DHT22;5822;51.000;5.874;2023-02-02T01:28:41;9.50;99.90
11532;DHT22;5822;51.000;5.874;2023-02-02T01:31:09;9.50;99.90
11532;DHT22;5822;51.000;5.874;2023-02-02T01:33:35;9.40;99.90
11532;DHT22;5822;51.000;5.874;2023-02-02T01:36:05;9.50;99.90
11532;DHT22;5822;51.000;5.874;2023-02-02T01:38:31;9.50;99.90
11532;DHT22;5822;51.000;5.874;2023-02-02T01:40:57;9.50;99.90
11532;DHT22;5822;51.000;5.874;2023-02-02T01:43:28;9.60;99.90
11532;DHT22;5822;51.000;5.874;2023-02-02T01:45:56;9.60;99.90
11532;DHT22;5822;51.000;5.874;2023-02-02T01:48:27;9.60;99.90
11532;DHT22;5822;51.000;5.874;2023-02-02T01:50:57;9.60;99.90
11532;DHT22;5822;51.000;5.874;2023-02-02T01:53:24;9.60;99.90
11532;DHT22;5822;51.000;5.874;2023-02-02T01:55:51;9.60;99.90
11532;DHT22;5822;51.000;5.874;2023-02-02T01:58:29;9.60;99.90
11532;DHT22;5822;51.000;5.874;2023-02-02T02:00:55;9.60;99.90
11532;DHT22;5822;51.000;5.874;2023-02-02T02:03:24;9.70;99.90
11532;DHT22;5822;51.000;5.874;2023-02-02T02:05:57;9.70;99.90
11532;DHT22;5822;51.000;5.874;2023-02-02T02:08:30;9.70;99.90
11532;DHT22;5822;51.000;5.874;2023-02-02T02:10:57;9.70;99.90
11532;DHT22;5822;51.000;5.874;2023-02-02T02:13:24;9.60;99.90
11532;DHT22;5822;51.000;5.874;2023-02-02T02:39:47;9.60;99.90
11532;DHT22;5822;51.000;5.874;2023-02-02T02:42:20;9.70;99.90
11532;DHT22;5822;51.000;5.874;2023-02-02T02:44:48;9.60;99.90
11532;DHT22;5822;51.000;5.874;2023-02-02T02:47:14;9.60;99.90
11532;DHT22;5822;51.000;5.874;2023-02-02T02:49:46;9.70;99.90
11532;DHT22;5822;51.000;5.874;2023-02-02T02:52:13;9.70;99.90
11532;DHT22;5822;51.000;5.874;2023-02-02T02:54:46;9.60;99.90
11532;DHT22;5822;51.000;5.874;2023-02-02T03:07:54;9.60;99.90
11532;DHT22;5822;51.000;5.874;2023-02-02T03:10:25;9.60;99.90
11532;DHT22;5822;51.000;5.874;2023-02-02T03:12:53;9.70;99.90
11532;DHT22;5822;51.000;5.874;2023-02-02T03:15:19;9.70;99.90
11532;DHT22;5822;51.000;5.874;2023-02-02T03:17:49;9.70;99.90
11532;DHT22;5822;51.000;5.874;2023-02-02T03:20:15;9.80;99.90
11532;DHT22;5822;51.000;5.874;2023-02-02T03:22:41;9.80;99.90
11532;DHT22;5822;51.000;5.874;2023-02-02T03:25:07;9.80;99.90
11532;DHT22;5822;51.000;5.874;2023-02-02T03:27:36;9.80;99.90
11532;DHT22;5822;51.000;5.874;2023-02-02T03:30:04;9.60;99.90
11532;DHT22;5822;51.000;5.874;2023-02-02T03:32:30;9.60;99.90
11532;DHT22;5822;51.000;5.874;2023-02-02T03:34:55;9.60;99.90
11532;DHT22;5822;51.000;5.874;2023-02-02T03:37:21;9.70;99.90
11532;DHT22;5822;51.000;5.874;2023-02-02T03:39:46;9.70;99.90
11532;DHT22;5822;51.000;5.874;2023-02-02T03:42:12;9.60;99.90
11532;DHT22;5822;51.000;5.874;2023-02-02T03:44:38;9.70;99.90
11532;DHT22;5822;51.000;5.874;2023-02-02T03:47:03;9.80;99.90
11532;DHT22;5822;51.000;5.874;2023-02-02T03:49:29;9.80;99.90
11532;DHT22;5822;51.000;5.874;2023-02-02T03:51:54;9.70;99.90
11532;DHT22;5822;51.000;5.874;2023-02-02T03:54:20;9.70;99.90
11532;DHT22;5822;51.000;5.874;2023-02-02T03:56:46;9.70;99.90
11532;DHT22;5822;51.000;5.874;2023-02-02T03:59:11;9.70;99.90
11532;DHT22;5822;51.000;5.874;2023-02-02T04:01:37;9.70;99.90
11532;DHT22;5822;51.000;5.874;2023-02-02T04:04:02;9.70;99.90
11532;DHT22;5822;51.000;5.874;2023-02-02T04:06:28;9.70;99.90
11532;DHT22;5822;51.000;5.874;2023-02-02T04:08:54;9.70;99.90
11532;DHT22;5822;51.000;5.874;2023-02-02T04:11:20;9.70;99.90
11532;DHT22;5822;51.000;5.874;2023-02-02T04:13:46;9.70;99.90
11532;DHT22;5822;51.000;5.874;2023-02-02T04:16:11;9.70;99.90
11532;DHT22;5822;51.000;5.874;2023-02-02T04:18:37;9.60;99.90
11532;DHT22;5822;51.000;5.874;2023-02-02T04:21:03;9.70;99.90
11532;DHT22;5822;51.000;5.874;2023-02-02T04:23:30;9.70;99.90
11532;DHT22;5822;51.000;5.874;2023-02-02T04:25:56;9.70;99.90
11532;DHT22;5822;51.000;5.874;2023-02-02T04:28:24;9.70;99.90
11532;DHT22;5822;51.000;5.874;2023-02-02T04:30:52;9.70;99.90
11532;DHT22;5822;51.000;5.874;2023-02-02T04:33:18;9.60;99.90
11532;DHT22;5822;51.000;5.874;2023-02-02T04:35:44;9.70;99.90
11532;DHT22;5822;51.000;5.874;2023-02-02T04:38:10;9.70;99.90
11532;DHT22;5822;51.000;5.874;2023-02-02T04:40:43;9.70;99.90
11532;DHT22;5822;51.000;5.874;2023-02-02T04:43:10;9.70;99.90
11532;DHT22;5822;51.000;5.874;2023-02-02T04:45:36;9.70;99.90
11532;DHT22;5822;51.000;5.874;2023-02-02T04:48:02;9.70;99.90
11532;DHT22;5822;51.000;5.874;2023-02-02T04:50:28;9.70;99.90
11532;DHT22;5822;51.000;5.874;2023-02-02T04:52:53;9.70;99.90
11532;DHT22;5822;51.000;5.874;2023-02-02T04:55:19;9.60;99.90
11532;DHT22;5822;51.000;5.874;2023-02-02T04:57:45;9.60;99.90
11532;DHT22;5822;51.000;5.874;2023-02-02T05:00:11;9.70;99.90
11532;DHT22;5822;51.000;5.874;2023-02-02T05:02:38;9.70;99.90
11532;DHT22;5822;51.000;5.874;2023-02-02T05:05:05;9.70;99.90
11532;DHT22;5822;51.000;5.874;2023-02-02T05:07:31;9.70;99.90
11532;DHT22;5822;51.000;5.874;2023-02-02T05:09:56;9.60;99.90
11532;DHT22;5822;51.000;5.874;2023-02-02T05:12:22;9.50;99.90
11532;DHT22;5822;51.000;5.874;2023-02-02T05:14:48;9.50;99.90
11532;DHT22;5822;51.000;5.874;2023-02-02T05:17:13;9.50;99.90
11532;DHT22;5822;51.000;5.874;2023-02-02T05:19:40;9.40;99.90
11532;DHT22;5822;51.000;5.874;2023-02-02T05:22:05;9.40;99.90
11532;DHT22;5822;51.000;5.874;2023-02-02T05:24:31;9.40;99.90
11532;DHT22;5822;51.000;5.874;2023-02-02T05:26:57;9.40;99.90
11532;DHT22;5822;51.000;5.874;2023-02-02T05:29:26;9.40;99.90
11532;DHT22;5822;51.000;5.874;2023-02-02T05:31:52;9.40;99.90
11532;DHT22;5822;51.000;5.874;2023-02-02T05:34:20;9.30;99.90
11532;DHT22;5822;51.000;5.874;2023-02-02T05:36:46;9.30;99.90
11532;DHT22;5822;51.000;5.874;2023-02-02T05:39:12;9.30;99.90
11532;DHT22;5822;51.000;5.874;2023-02-02T05:41:38;9.20;99.90
11532;DHT22;5822;51.000;5.874;2023-02-02T05:44:04;9.20;99.90
11532;DHT22;5822;51.000;5.874;2023-02-02T05:46:29;9.20;99.90
11532;DHT22;5822;51.000;5.874;2023-02-02T05:48:55;9.30;99.90
11532;DHT22;5822;51.000;5.874;2023-02-02T05:51:27;9.30;99.90
11532;DHT22;5822;51.000;5.874;2023-02-02T05:53:53;9.30;99.90
11532;DHT22;5822;51.000;5.874;2023-02-02T05:56:19;9.30;99.90
11532;DHT22;5822;51.000;5.874;2023-02-02T05:58:45;9.30;99.90
11532;DHT22;5822;51.000;5.874;2023-02-02T06:01:13;9.40;99.90
11532;DHT22;5822;51.000;5.874;2023-02-02T06:03:38;9.30;99.90
11532;DHT22;5822;51.000;5.874;2023-02-02T06:06:04;9.20;99.90
11532;DHT22;5822;51.000;5.874;2023-02-02T06:08:30;9.20;99.90
11532;DHT22;5822;51.000;5.874;2023-02-02T06:10:55;9.30;99.90
11532;DHT22;5822;51.000;5.874;2023-02-02T06:13:21;9.30;99.90
11532;DHT22;5822;51.000;5.874;2023-02-02T06:15:47;9.40;99.90
11532;DHT22;5822;51.000;5.874;2023-02-02T06:18:13;9.40;99.90
11532;DHT22;5822;51.000;5.874;2023-02-02T06:20:38;9.40;99.90
11532;DHT22;5822;51.000;5.874;2023-02-02T06:23:04;9.40;99.90
11532;DHT22;5822;51.000;5.874;2023-02-02T06:25:30;9.30;99.90
11532;DHT22;5822;51.000;5.874;2023-02-02T06:27:57;9.30;99.90
11532;DHT22;5822;51.000;5.874;2023-02-02T06:30:23;9.40;99.90
11532;DHT22;5822;51.000;5.874;2023-02-02T06:32:49;9.30;99.90
11532;DHT22;5822;51.000;5.874;2023-02-02T06:35:15;9.40;99.90
11532;DHT22;5822;51.000;5.874;2023-02-02T06:37:40;9.30;99.90
11532;DHT22;5822;51.000;5.874;2023-02-02T06:40:07;9.40;99.90
11532;DHT22;5822;51.000;5.874;2023-02-02T06:42:33;9.30;99.90
11532;DHT22;5822;51.000;5.874;2023-02-02T06:45:00;9.40;99.90
11532;DHT22;5822;51.000;5.874;2023-02-02T06:47:26;9.40;99.90
11532;DHT22;5822;51.000;5.874;2023-02-02T06:49:52;9.40;99.90
11532;DHT22;5822;51.000;5.874;2023-02-02T06:52:17;9.40;99.90
11532;DHT22;5822;51.000;5.874;2023-02-02T06:54:43;9.40;99.90
11532;DHT22;5822;51.000;5.874;2023-02-02T06:57:09;9.30;99.90
11532;DHT22;5822;51.000;5.874;2023-02-02T06:59:34;9.30;99.90
11532;DHT22;5822;51.000;5.874;2023-02-02T07:02:00;9.40;99.90
11532;DHT22;5822;51.000;5.874;2023-02-02T07:04:25;9.40;99.90
11532;DHT22;5822;51.000;5.874;2023-02-02T07:06:51;9.40;99.90
11532;DHT22;5822;51.000;5.874;2023-02-02T07:09:17;9.40;99.90
11532;DHT22;5822;51.000;5.874;2023-02-02T07:11:42;9.40;99.90
11532;DHT22;5822;51.000;5.874;2023-02-02T07:14:08;9.40;99.90
11532;DHT22;5822;51.000;5.874;2023-02-02T07:16:35;9.40;99.90
11532;DHT22;5822;51.000;5.874;2023-02-02T07:19:01;9.40;99.90
11532;DHT22;5822;51.000;5.874;2023-02-02T07:21:26;9.40;99.90
11532;DHT22;5822;51.000;5.874;2023-02-02T07:24:03;9.50;99.90
11532;DHT22;5822;51.000;5.874;2023-02-02T07:26:29;9.50;99.90
11532;DHT22;5822;51.000;5.874;2023-02-02T07:28:54;9.50;99.90
11532;DHT22;5822;51.000;5.874;2023-02-02T07:31:22;9.50;99.90
11532;DHT22;5822;51.000;5.874;2023-02-02T07:33:49;9.40;99.90
11532;DHT22;5822;51.000;5.874;2023-02-02T07:36:17;9.50;99.90
11532;DHT22;5822;51.000;5.874;2023-02-02T07:38:44;9.40;99.90
11532;DHT22;5822;51.000;5.874;2023-02-02T07:41:11;9.40;99.90
11532;DHT22;5822;51.000;5.874;2023-02-02T07:43:36;9.40;99.90
11532;DHT22;5822;51.000;5.874;2023-02-02T07:46:04;9.40;99.90
11532;DHT22;5822;51.000;5.874;2023-02-02T07:48:33;9.40;99.90
11532;DHT22;5822;51.000;5.874;2023-02-02T07:50:59;9.40;99.90
11532;DHT22;5822;51.000;5.874;2023-02-02T07:53:26;9.40;99.90
11532;DHT22;5822;51.000;5.874;2023-02-02T07:55:51;9.40;99.90
11532;DHT22;5822;51.000;5.874;2023-02-02T07:58:17;9.50;99.90
11532;DHT22;5822;51.000;5.874;2023-02-02T08:00:42;9.40;99.90
11532;DHT22;5822;51.000;5.874;2023-02-02T08:03:11;9.50;99.90
11532;DHT22;5822;51.000;5.874;2023-02-02T08:05:37;9.50;99.90
11532;DHT22;5822;51.000;5.874;2023-02-02T08:08:03;9.50;99.90
11532;DHT22;5822;51.000;5.874;2023-02-02T08:10:28;9.40;99.90
11532;DHT22;5822;51.000;5.874;2023-02-02T08:12:54;9.40;99.90
11532;DHT22;5822;51.000;5.874;2023-02-02T08:15:20;9.40;99.90
11532;DHT22;5822;51.000;5.874;2023-02-02T08:17:46;9.50;99.90
11532;DHT22;5822;51.000;5.874;2023-02-02T08:20:14;9.40;99.90
11532;DHT22;5822;51.000;5.874;2023-02-02T08:22:40;9.40;99.90
11532;DHT22;5822;51.000;5.874;2023-02-02T08:25:09;9.40;99.90
11532;DHT22;5822;51.000;5.874;2023-02-02T08:27:34;9.40;99.90
11532;DHT22;5822;51.000;5.874;2023-02-02T08:30:00;9.40;99.90
11532;DHT22;5822;51.000;5.874;2023-02-02T08:32:26;9.40;99.90
11532;DHT22;5822;51.000;5.874;2023-02-02T08:34:51;9.40;99.90
11532;DHT22;5822;51.000;5.874;2023-02-02T08:37:18;9.50;99.90
11532;DHT22;5822;51.000;5.874;2023-02-02T08:39:43;9.40;99.90
11532;DHT22;5822;51.000;5.874;2023-02-02T08:42:09;9.50;99.90
11532;DHT22;5822;51.000;5.874;2023-02-02T08:44:34;9.60;99.90
11532;DHT22;5822;51.000;5.874;2023-02-02T08:47:00;9.50;99.90
11532;DHT22;5822;51.000;5.874;2023-02-02T08:49:26;9.50;99.90
11532;DHT22;5822;51.000;5.874;2023-02-02T08:51:52;9.50;99.90
11532;DHT22;5822;51.000;5.874;2023-02-02T08:54:17;9.40;99.90
11532;DHT22;5822;51.000;5.874;2023-02-02T08:56:43;9.50;99.90
11532;DHT22;5822;51.000;5.874;2023-02-02T08:59:09;9.50;99.90
11532;DHT22;5822;51.000;5.874;2023-02-02T09:01:34;9.40;99.90
11532;DHT22;5822;51.000;5.874;2023-02-02T09:04:06;9.50;99.90
11532;DHT22;5822;51.000;5.874;2023-02-02T09:06:39;9.50;99.90
11532;DHT22;5822;51.000;5.874;2023-02-02T09:09:07;9.40;99.90
11532;DHT22;5822;51.000;5.874;2023-02-02T09:11:34;9.50;99.90
11532;DHT22;5822;51.000;5.874;2023-02-02T09:14:00;9.40;99.90
11532;DHT22;5822;51.000;5.874;2023-02-02T09:16:28;9.40;99.90
11532;DHT22;5822;51.000;5.874;2023-02-02T09:18:54;9.50;99.90
11532;DHT22;5822;51.000;5.874;2023-02-02T09:21:21;9.50;99.90
11532;DHT22;5822;51.000;5.874;2023-02-02T09:23:48;9.50;99.90
11532;DHT22;5822;51.000;5.874;2023-02-02T09:28:44;9.60;99.90
11532;DHT22;5822;51.000;5.874;2023-02-02T09:31:10;9.60;99.90
11532;DHT22;5822;51.000;5.874;2023-02-02T09:33:36;9.60;99.90
11532;DHT22;5822;51.000;5.874;2023-02-02T09:36:10;9.50;99.90
11532;DHT22;5822;51.000;5.874;2023-02-02T09:38:37;9.60;99.90
11532;DHT22;5822;51.000;5.874;2023-02-02T09:49:21;9.70;99.90
11532;DHT22;5822;51.000;5.874;2023-02-02T09:51:57;9.60;99.90
11532;DHT22;5822;51.000;5.874;2023-02-02T09:54:47;9.70;99.90
11532;DHT22;5822;51.000;5.874;2023-02-02T09:57:40;9.70;99.90
11532;DHT22;5822;51.000;5.874;2023-02-02T10:03:09;9.70;99.90
11532;DHT22;5822;51.000;5.874;2023-02-02T10:05:53;9.80;99.90
11532;DHT22;5822;51.000;5.874;2023-02-02T10:08:32;9.80;99.90
11532;DHT22;5822;51.000;5.874;2023-02-02T10:11:04;9.90;99.90
11532;DHT22;5822;51.000;5.874;2023-02-02T10:13:34;9.90;99.90
11532;DHT22;5822;51.000;5.874;2023-02-02T10:16:06;9.90;99.90
11532;DHT22;5822;51.000;5.874;2023-02-02T10:19:12;9.90;99.90
11532;DHT22;5822;51.000;5.874;2023-02-02T10:24:31;10.00;99.90
11532;DHT22;5822;51.000;5.874;2023-02-02T10:27:07;10.00;99.90
11532;DHT22;5822;51.000;5.874;2023-02-02T10:29:56;10.10;99.90
11532;DHT22;5822;51.000;5.874;2023-02-02T10:34:57;10.10;99.90
11532;DHT22;5822;51.000;5.874;2023-02-02T10:37:29;10.10;99.90
11532;DHT22;5822;51.000;5.874;2023-02-02T10:45:38;10.10;99.90
11532;DHT22;5822;51.000;5.874;2023-02-02T10:48:13;10.00;99.90
11532;DHT22;5822;51.000;5.874;2023-02-02T10:50:42;10.00;99.90
11532;DHT22;5822;51.000;5.874;2023-02-02T10:53:13;10.10;99.90
11532;DHT22;5822;51.000;5.874;2023-02-02T10:58:47;10.10;99.90
11532;DHT22;5822;51.000;5.874;2023-02-02T11:01:14;10.20;99.90
11532;DHT22;5822;51.000;5.874;2023-02-02T11:03:43;10.20;99.90
11532;DHT22;5822;51.000;5.874;2023-02-02T11:06:11;10.30;99.90
11532;DHT22;5822;51.000;5.874;2023-02-02T11:08:56;10.30;99.90
11532;DHT22;5822;51.000;5.874;2023-02-02T11:11:41;10.30;99.90
11532;DHT22;5822;51.000;5.874;2023-02-02T11:16:40;10.30;99.90
11532;DHT22;5822;51.000;5.874;2023-02-02T11:19:29;10.30;99.90
11532;DHT22;5822;51.000;5.874;2023-02-02T11:21:57;10.40;99.90
11532;DHT22;5822;51.000;5.874;2023-02-02T11:24:44;10.40;99.90
11532;DHT22;5822;51.000;5.874;2023-02-02T11:27:20;10.40;99.90
11532;DHT22;5822;51.000;5.874;2023-02-02T11:29:54;10.40;99.90
11532;DHT22;5822;51.000;5.874;2023-02-02T11:37:38;10.50;99.90
11532;DHT22;5822;51.000;5.874;2023-02-02T11:43:14;10.50;99.90
11532;DHT22;5822;51.000;5.874;2023-02-02T11:45:44;10.50;99.90
11532;DHT22;5822;51.000;5.874;2023-02-02T11:48:20;10.40;99.90
11532;DHT22;5822;51.000;5.874;2023-02-02T11:50:51;10.50;99.90
11532;DHT22;5822;51.000;5.874;2023-02-02T11:53:30;10.40;99.90
11532;DHT22;5822;51.000;5.874;2023-02-02T11:56:00;10.40;99.90
11532;DHT22;5822;51.000;5.874;2023-02-02T11:58:29;10.40;99.90
11532;DHT22;5822;51.000;5.874;2023-02-02T12:01:05;10.50;99.90
11532;DHT22;5822;51.000;5.874;2023-02-02T12:05:57;10.60;99.90
11532;DHT22;5822;51.000;5.874;2023-02-02T12:08:22;10.60;99.90
11532;DHT22;5822;51.000;5.874;2023-02-02T12:11:00;10.60;99.90
11532;DHT22;5822;51.000;5.874;2023-02-02T12:16:40;10.70;99.90
11532;DHT22;5822;51.000;5.874;2023-02-02T12:25:00;10.90;99.90
11532;DHT22;5822;51.000;5.874;2023-02-02T12:32:59;11.00;99.90
11532;DHT22;5822;51.000;5.874;2023-02-02T12:50:03;10.90;99.90
11532;DHT22;5822;51.000;5.874;2023-02-02T12:52:55;10.90;99.90
11532;DHT22;5822;51.000;5.874;2023-02-02T12:58:37;10.90;99.90
11532;DHT22;5822;51.000;5.874;2023-02-02T13:12:10;11.00;99.90
11532;DHT22;5822;51.000;5.874;2023-02-02T13:14:41;11.00;99.90
11532;DHT22;5822;51.000;5.874;2023-02-02T13:17:26;11.00;99.90
11532;DHT22;5822;51.000;5.874;2023-02-02T13:19:56;11.10;99.90
11532;DHT22;5822;51.000;5.874;2023-02-02T13:24:54;11.10;99.90
11532;DHT22;5822;51.000;5.874;2023-02-02T13:27:20;11.10;99.90
11532;DHT22;5822;51.000;5.874;2023-02-02T13:29:52;11.10;99.90
11532;DHT22;5822;51.000;5.874;2023-02-02T13:32:34;11.10;99.90
11532;DHT22;5822;51.000;5.874;2023-02-02T13:35:02;11.00;99.90
11532;DHT22;5822;51.000;5.874;2023-02-02T13:40:27;11.10;99.90
11532;DHT22;5822;51.000;5.874;2023-02-02T13:43:24;11.10;99.90
11532;DHT22;5822;51.000;5.874;2023-02-02T13:46:08;11.10;99.90
11532;DHT22;5822;51.000;5.874;2023-02-02T14:00:11;11.20;99.90
11532;DHT22;5822;51.000;5.874;2023-02-02T14:05:02;11.20;99.90
11532;DHT22;5822;51.000;5.874;2023-02-02T14:07:41;11.20;99.90
11532;DHT22;5822;51.000;5.874;2023-02-02T14:10:25;11.20;99.90
11532;DHT22;5822;51.000;5.874;2023-02-02T14:12:52;11.20;99.90
11532;DHT22;5822;51.000;5.874;2023-02-02T14:15:26;11.20;99.90
11532;DHT22;5822;51.000;5.874;2023-02-02T14:18:00;11.20;99.90
11532;DHT22;5822;51.000;5.874;2023-02-02T14:20:46;11.20;99.90
11532;DHT22;5822;51.000;5.874;2023-02-02T14:23:50;11.20;99.90
11532;DHT22;5822;51.000;5.874;2023-02-02T14:26:58;11.20;99.90
11532;DHT22;5822;51.000;5.874;2023-02-02T14:34:44;11.00;99.90
11532;DHT22;5822;51.000;5.874;2023-02-02T14:43:08;11.10;99.90
11532;DHT22;5822;51.000;5.874;2023-02-02T14:48:40;11.00;99.90
11532;DHT22;5822;51.000;5.874;2023-02-02T14:51:17;11.00;99.90
11532;DHT22;5822;51.000;5.874;2023-02-02T14:56:15;11.10;99.90
11532;DHT22;5822;51.000;5.874;2023-02-02T14:59:00;11.10;99.90
11532;DHT22;5822;51.000;5.874;2023-02-02T15:01:32;11.10;99.90
11532;DHT22;5822;51.000;5.874;2023-02-02T15:06:49;11.20;99.90
11532;DHT22;5822;51.000;5.874;2023-02-02T15:17:14;11.20;99.90
11532;DHT22;5822;51.000;5.874;2023-02-02T15:19:49;11.20;99.90
11532;DHT22;5822;51.000;5.874;2023-02-02T15:24:52;11.10;99.90
11532;DHT22;5822;51.000;5.874;2023-02-02T15:27:18;11.10;99.90
11532;DHT22;5822;51.000;5.874;2023-02-02T15:29:49;11.10;99.90
11532;DHT22;5822;51.000;5.874;2023-02-02T15:32:19;11.20;99.90
11532;DHT22;5822;51.000;5.874;2023-02-02T15:34:50;11.20;99.90
11532;DHT22;5822;51.000;5.874;2023-02-02T15:37:25;11.20;99.90
11532;DHT22;5822;51.000;5.874;2023-02-02T15:39:57;11.20;99.90
11532;DHT22;5822;51.000;5.874;2023-02-02T15:42:43;11.20;99.90
11532;DHT22;5822;51.000;5.874;2023-02-02T15:47:57;11.20;99.90
11532;DHT22;5822;51.000;5.874;2023-02-02T15:50:24;11.20;99.90
11532;DHT22;5822;51.000;5.874;2023-02-02T15:52:51;11.10;99.90
11532;DHT22;5822;51.000;5.874;2023-02-02T15:55:38;11.10;99.90
11532;DHT22;5822;51.000;5.874;2023-02-02T15:58:38;11.10;99.90
11532;DHT22;5822;51.000;5.874;2023-02-02T16:01:14;11.10;99.90
11532;DHT22;5822;51.000;5.874;2023-02-02T16:06:36;11.20;99.90
11532;DHT22;5822;51.000;5.874;2023-02-02T16:09:03;11.10;99.90
11532;DHT22;5822;51.000;5.874;2023-02-02T16:11:30;11.10;99.90
11532;DHT22;5822;51.000;5.874;2023-02-02T16:14:02;11.10;99.90
11532;DHT22;5822;51.000;5.874;2023-02-02T16:16:32;11.10;99.90
11532;DHT22;5822;51.000;5.874;2023-02-02T16:21:31;11.10;99.90
11532;DHT22;5822;51.000;5.874;2023-02-02T16:23:57;11.10;99.90
11532;DHT22;5822;51.000;5.874;2023-02-02T16:26:28;11.10;99.90
11532;DHT22;5822;51.000;5.874;2023-02-02T16:28:54;11.00;99.90
11532;DHT22;5822;51.000;5.874;2023-02-02T16:31:20;11.00;99.90
11532;DHT22;5822;51.000;5.874;2023-02-02T16:33:46;11.00;99.90
11532;DHT22;5822;51.000;5.874;2023-02-02T16:36:16;11.00;99.90
11532;DHT22;5822;51.000;5.874;2023-02-02T16:38:42;11.00;99.90
11532;DHT22;5822;51.000;5.874;2023-02-02T16:41:13;11.00;99.90
11532;DHT22;5822;51.000;5.874;2023-02-02T16:43:48;11.00;99.90
11532;DHT22;5822;51.000;5.874;2023-02-02T16:46:14;11.00;99.90
11532;DHT22;5822;51.000;5.874;2023-02-02T16:48:55;11.10;99.90
11532;DHT22;5822;51.000;5.874;2023-02-02T16:51:25;11.10;99.90
11532;DHT22;5822;51.000;5.874;2023-02-02T16:53:59;11.10;99.90
11532;DHT22;5822;51.000;5.874;2023-02-02T16:56:35;11.10;99.90
11532;DHT22;5822;51.000;5.874;2023-02-02T16:59:18;11.10;99.90
11532;DHT22;5822;51.000;5.874;2023-02-02T17:01:56;11.10;99.90
11532;DHT22;5822;51.000;5.874;2023-02-02T17:04:26;11.00;99.90
11532;DHT22;5822;51.000;5.874;2023-02-02T17:06:54;11.00;99.90
11532;DHT22;5822;51.000;5.874;2023-02-02T17:15:02;11.10;99.90
11532;DHT22;5822;51.000;5.874;2023-02-02T17:17:47;11.00;99.90
11532;DHT22;5822;51.000;5.874;2023-02-02T17:20:14;11.00;99.90
11532;DHT22;5822;51.000;5.874;2023-02-02T17:22:43;11.00;99.90
11532;DHT22;5822;51.000;5.874;2023-02-02T17:25:20;11.00;99.90
11532;DHT22;5822;51.000;5.874;2023-02-02T17:27:47;11.00;99.90
11532;DHT22;5822;51.000;5.874;2023-02-02T17:30:15;11.00;99.90
11532;DHT22;5822;51.000;5.874;2023-02-02T17:32:41;11.00;99.90
11532;DHT22;5822;51.000;5.874;2023-02-02T17:37:40;11.10;99.90
11532;DHT22;5822;51.000;5.874;2023-02-02T17:40:06;11.00;99.90
11532;DHT22;5822;51.000;5.874;2023-02-02T17:42:32;11.10;99.90
11532;DHT22;5822;51.000;5.874;2023-02-02T17:44:59;11.00;99.90
11532;DHT22;5822;51.000;5.874;2023-02-02T17:47:24;11.00;99.90
11532;DHT22;5822;51.000;5.874;2023-02-02T17:49:50;11.10;99.90
11532;DHT22;5822;51.000;5.874;2023-02-02T17:52:15;11.10;99.90
11532;DHT22;5822;51.000;5.874;2023-02-02T17:54:41;11.00;99.90
11532;DHT22;5822;51.000;5.874;2023-02-02T17:57:07;11.10;99.90
11532;DHT22;5822;51.000;5.874;2023-02-02T17:59:32;11.00;99.90
11532;DHT22;5822;51.000;5.874;2023-02-02T18:01:58;11.00;99.90
11532;DHT22;5822;51.000;5.874;2023-02-02T18:04:24;11.00;99.90
11532;DHT22;5822;51.000;5.874;2023-02-02T18:06:51;11.00;99.90
11532;DHT22;5822;51.000;5.874;2023-02-02T18:09:16;11.00;99.90
11532;DHT22;5822;51.000;5.874;2023-02-02T18:11:42;11.00;99.90
11532;DHT22;5822;51.000;5.874;2023-02-02T18:14:10;11.10;99.90
11532;DHT22;5822;51.000;5.874;2023-02-02T18:16:35;11.00;99.90
11532;DHT22;5822;51.000;5.874;2023-02-02T18:19:01;11.00;99.90
11532;DHT22;5822;51.000;5.874;2023-02-02T18:21:27;11.00;99.90
11532;DHT22;5822;51.000;5.874;2023-02-02T18:23:54;11.00;99.90
11532;DHT22;5822;51.000;5.874;2023-02-02T18:26:21;11.10;99.90
11532;DHT22;5822;51.000;5.874;2023-02-02T18:28:47;11.00;99.90
11532;DHT22;5822;51.000;5.874;2023-02-02T18:31:16;11.00;99.90
11532;DHT22;5822;51.000;5.874;2023-02-02T18:33:44;11.00;99.90
11532;DHT22;5822;51.000;5.874;2023-02-02T18:36:12;11.00;99.90
11532;DHT22;5822;51.000;5.874;2023-02-02T18:38:41;11.00;99.90
11532;DHT22;5822;51.000;5.874;2023-02-02T18:41:13;11.00;99.90
11532;DHT22;5822;51.000;5.874;2023-02-02T18:43:39;11.10;99.90
11532;DHT22;5822;51.000;5.874;2023-02-02T18:46:06;11.10;99.90
11532;DHT22;5822;51.000;5.874;2023-02-02T18:48:36;11.00;99.90
11532;DHT22;5822;51.000;5.874;2023-02-02T18:51:06;11.00;99.90
11532;DHT22;5822;51.000;5.874;2023-02-02T18:53:32;11.00;99.90
11532;DHT22;5822;51.000;5.874;2023-02-02T18:56:03;11.00;99.90
11532;DHT22;5822;51.000;5.874;2023-02-02T18:58:32;11.00;99.90
11532;DHT22;5822;51.000;5.874;2023-02-02T19:00:58;10.90;99.90
11532;DHT22;5822;51.000;5.874;2023-02-02T19:03:24;10.90;99.90
11532;DHT22;5822;51.000;5.874;2023-02-02T19:05:49;10.90;99.90
11532;DHT22;5822;51.000;5.874;2023-02-02T19:08:33;10.90;99.90
11532;DHT22;5822;51.000;5.874;2023-02-02T19:11:04;10.90;99.90